Reuben, Nebraska
Current Conditions -  °F | °C
As of 4:55 AM on Friday 24 Oct 2014 (Local Time) from KHDE Reporting Station
Haze Haze  
Wind Chill: 55°   Ceiling: Unl
Heat Index: 55°   Visibility: 5mi
Dew Point: 53°   Wind: 9mph
Humidity: 92%   Direction: 230°SW
Pressure: 29.98"   Gusts: NA
Location:  40.2849°N, 99.6171°W
Report Text: KHDE 240955Z AUTO 23008KT 5SM BR CLR 13/12 A2998 RMK AO2 T01280116
Loading
Personal Weather Stations






























Interactive Weather Map
Tropical Storm Tracking
New forecast layout! Learn more

10-Day Weather Forecast

Advertisements
Track Severe Weather on mobile